createdAt,value
2019-05-02T00:00:14.216Z,97.74
2019-05-02T00:01:14.137Z,99.99
2019-05-02T00:02:14.089Z,99.99
2019-05-02T00:03:13.977Z,99.99
2019-05-02T00:04:20.088Z,99.99
2019-05-02T00:05:13.900Z,99.99
2019-05-02T00:06:13.742Z,99.99
2019-05-02T00:07:14.639Z,99.99
2019-05-02T00:08:13.597Z,99.99
2019-05-02T00:09:13.546Z,99.99
2019-05-02T00:10:13.424Z,99.99
2019-05-02T00:11:13.430Z,99.99
2019-05-02T00:12:13.273Z,99.99
2019-05-02T00:13:13.185Z,99.99
2019-05-02T00:14:13.148Z,99.99
2019-05-02T00:15:13.021Z,99.99
2019-05-02T00:16:14.090Z,99.99
2019-05-02T00:17:12.959Z,99.99
2019-05-02T00:18:12.781Z,99.99
2019-05-02T00:19:14.070Z,99.99
2019-05-02T00:20:12.628Z,99.99
2019-05-02T00:21:12.548Z,99.99
2019-05-02T00:22:17.013Z,99.99
2019-05-02T00:23:12.493Z,99.99
2019-05-02T00:24:12.301Z,99.99
2019-05-02T00:25:15.940Z,99.99
2019-05-02T00:26:12.201Z,99.99
2019-05-02T00:27:12.066Z,99.99
2019-05-02T00:28:13.859Z,99.99
2019-05-02T00:29:11.907Z,99.99
2019-05-02T00:30:11.819Z,99.99
2019-05-02T00:31:12.829Z,99.99
2019-05-02T00:32:11.738Z,99.99
2019-05-02T00:33:11.584Z,99.99
2019-05-02T00:34:11.501Z,99.99
2019-05-02T00:35:11.449Z,99.99
2019-05-02T00:36:11.347Z,99.99
2019-05-02T00:37:11.263Z,99.99
2019-05-02T00:38:11.261Z,99.99
2019-05-02T00:39:13.825Z,99.99
2019-05-02T00:40:11.028Z,99.99
2019-05-02T00:41:10.978Z,99.99
2019-05-02T00:42:12.798Z,99.99
2019-05-02T00:43:10.779Z,99.99
2019-05-02T00:44:11.376Z,99.99
2019-05-02T00:45:10.619Z,99.99
2019-05-02T00:46:10.541Z,99.99
2019-05-02T00:47:10.815Z,99.99
2019-05-02T00:48:10.387Z,99.99
2019-05-02T00:49:10.300Z,99.99
2019-05-02T00:50:11.304Z,99.99
2019-05-02T00:51:10.145Z,99.99
2019-05-02T00:52:10.061Z,99.99
2019-05-02T00:53:12.189Z,99.99
2019-05-02T00:54:09.902Z,99.99
2019-05-02T00:55:09.831Z,99.99
2019-05-02T00:56:10.389Z,99.99
2019-05-02T00:57:09.660Z,99.99
2019-05-02T00:58:09.578Z,99.99
2019-05-02T00:59:09.499Z,99.99
2019-05-02T01:00:13.470Z,99.99
2019-05-02T01:01:09.355Z,99.99
2019-05-02T01:02:09.284Z,99.99
2019-05-02T01:03:11.244Z,99.99
2019-05-02T01:04:09.100Z,99.99
2019-05-02T01:05:09.094Z,99.99
2019-05-02T01:06:13.763Z,99.99
2019-05-02T01:07:08.858Z,99.99
2019-05-02T01:08:08.816Z,98.49
2019-05-02T01:09:10.877Z,96.22
2019-05-02T01:10:08.626Z,96.50
2019-05-02T01:11:08.626Z,99.35
2019-05-02T01:12:09.891Z,99.99
2019-05-02T01:13:08.375Z,99.99
2019-05-02T01:14:08.353Z,99.99
2019-05-02T01:15:09.574Z,99.99
2019-05-02T01:16:08.136Z,99.99
2019-05-02T01:17:08.158Z,99.99
2019-05-02T01:18:08.083Z,99.99
2019-05-02T01:19:12.188Z,99.99
2019-05-02T01:20:07.817Z,99.35
2019-05-02T01:21:07.774Z,98.68
2019-05-02T01:22:10.540Z,95.17
2019-05-02T01:23:07.576Z,94.32
2019-05-02T01:24:07.600Z,92.71
2019-05-02T01:25:15.016Z,93.46
2019-05-02T01:26:07.334Z,93.08
2019-05-02T01:27:07.310Z,93.75
2019-05-02T01:28:07.213Z,97.45
2019-05-02T01:29:07.097Z,99.99
2019-05-02T01:30:07.424Z,99.99
2019-05-02T01:31:06.939Z,99.99
2019-05-02T01:32:06.928Z,99.99
2019-05-02T01:33:07.775Z,99.99
2019-05-02T01:34:06.696Z,99.99
2019-05-02T01:35:06.642Z,99.99
2019-05-02T01:36:08.122Z,99.99
2019-05-02T01:37:06.446Z,99.99
2019-05-02T01:38:06.470Z,99.99
2019-05-02T01:39:07.592Z,99.99
2019-05-02T01:40:06.209Z,99.99
2019-05-02T01:41:06.175Z,99.99
2019-05-02T01:42:06.046Z,99.99
2019-05-02T01:43:05.969Z,99.99
2019-05-02T01:44:05.883Z,99.99
2019-05-02T01:45:06.832Z,99.99
2019-05-02T01:46:05.723Z,99.99
2019-05-02T01:47:05.706Z,99.99
2019-05-02T01:48:09.818Z,99.99
2019-05-02T01:49:05.482Z,99.99
2019-05-02T01:50:05.519Z,99.99
2019-05-02T01:51:10.196Z,99.99
2019-05-02T01:52:05.236Z,99.99
2019-05-02T01:53:05.228Z,99.99
2019-05-02T01:54:09.847Z,99.99
2019-05-02T01:55:05.014Z,99.99
2019-05-02T01:56:04.921Z,99.99
2019-05-02T01:57:08.708Z,99.99
2019-05-02T01:58:04.757Z,99.99
2019-05-02T01:59:04.761Z,99.99
2019-05-02T02:00:09.460Z,99.99
2019-05-02T02:01:04.521Z,99.99
2019-05-02T02:02:04.451Z,99.99
2019-05-02T02:03:08.822Z,99.99
2019-05-02T02:04:04.275Z,99.99
2019-05-02T02:05:04.291Z,99.99
2019-05-02T02:06:08.073Z,99.99
2019-05-02T02:07:04.035Z,99.99
2019-05-02T02:08:04.012Z,99.99
2019-05-02T02:09:08.206Z,99.99
2019-05-02T02:10:03.803Z,99.99
2019-05-02T02:11:03.820Z,99.99
2019-05-02T02:12:05.063Z,99.99
2019-05-02T02:13:05.223Z,99.99
2019-05-02T02:14:07.315Z,99.99
2019-05-02T02:15:03.393Z,99.99
2019-05-02T02:16:04.403Z,99.99
2019-05-02T02:17:03.233Z,99.99
2019-05-02T02:18:03.254Z,99.99
2019-05-02T02:19:04.068Z,99.99
2019-05-02T02:20:02.986Z,99.99
2019-05-02T02:21:02.977Z,99.99
2019-05-02T02:22:04.407Z,99.99
2019-05-02T02:23:02.744Z,99.99
2019-05-02T02:24:02.785Z,99.99
2019-05-02T02:25:02.916Z,99.99
2019-05-02T02:26:02.501Z,99.99
2019-05-02T02:27:02.491Z,99.99
2019-05-02T02:28:02.402Z,99.99
2019-05-02T02:29:03.113Z,99.99
2019-05-02T02:30:02.220Z,99.99
2019-05-02T02:31:04.930Z,99.99
2019-05-02T02:32:02.018Z,99.99
2019-05-02T02:33:07.865Z,99.99
2019-05-02T02:34:01.872Z,99.99
2019-05-02T02:35:03.415Z,99.99
2019-05-02T02:36:01.742Z,99.99
2019-05-02T02:37:05.548Z,99.99
2019-05-02T02:38:01.540Z,99.99
2019-05-02T02:39:07.137Z,99.99
2019-05-02T02:40:01.375Z,97.97
2019-05-02T02:41:06.483Z,99.99
2019-05-02T02:42:01.214Z,99.99
2019-05-02T02:43:12.801Z,99.99
2019-05-02T02:44:03.005Z,99.99
2019-05-02T02:45:01.093Z,99.99
2019-05-02T02:46:00.994Z,99.99
2019-05-02T02:47:00.804Z,99.99
2019-05-02T02:48:02.553Z,99.99
2019-05-02T02:49:00.665Z,99.99
2019-05-02T02:50:02.364Z,99.99
2019-05-02T02:51:00.520Z,99.99
2019-05-02T02:52:04.846Z,99.99
2019-05-02T02:53:00.322Z,99.99
2019-05-02T02:54:03.860Z,99.99
2019-05-02T02:55:00.156Z,99.99
2019-05-02T02:56:02.049Z,99.99
2019-05-02T02:57:00.013Z,99.99
2019-05-02T02:58:04.666Z,99.99
2019-05-02T02:58:59.832Z,99.99
2019-05-02T03:00:07.838Z,99.99
2019-05-02T03:00:59.766Z,99.99
2019-05-02T03:02:09.128Z,99.99
2019-05-02T03:02:59.518Z,99.99
2019-05-02T03:04:01.949Z,99.99
2019-05-02T03:04:59.366Z,99.99
2019-05-02T03:06:05.604Z,99.99
2019-05-02T03:06:59.295Z,99.99
2019-05-02T03:07:59.723Z,99.99
2019-05-02T03:08:59.102Z,99.99
2019-05-02T03:09:59.769Z,99.99
2019-05-02T03:10:58.860Z,99.99
2019-05-02T03:12:02.311Z,99.99
2019-05-02T03:12:58.828Z,99.99
2019-05-02T03:14:05.578Z,99.99
2019-05-02T03:14:58.541Z,99.99
2019-05-02T03:16:00.482Z,99.99
2019-05-02T03:16:58.448Z,99.99
2019-05-02T03:18:00.045Z,99.99
2019-05-02T03:18:58.226Z,99.99
2019-05-02T03:20:01.552Z,99.99
2019-05-02T03:20:58.063Z,99.99
2019-05-02T03:22:03.786Z,99.20
2019-05-02T03:22:57.972Z,96.73
2019-05-02T03:24:03.427Z,95.26
2019-05-02T03:24:57.732Z,96.97
2019-05-02T03:25:57.652Z,97.73
2019-05-02T03:26:58.412Z,99.72
2019-05-02T03:27:57.495Z,99.99
2019-05-02T03:29:00.174Z,99.99
2019-05-02T03:29:57.403Z,99.99
2019-05-02T03:30:57.246Z,99.99
2019-05-02T03:32:14.604Z,99.99
2019-05-02T03:33:06.015Z,99.99
2019-05-02T03:34:00.155Z,99.99
2019-05-02T03:34:56.933Z,99.99
2019-05-02T03:35:56.854Z,99.99
2019-05-02T03:37:03.181Z,99.99
2019-05-02T03:37:56.682Z,99.99
2019-05-02T03:38:56.649Z,99.99
2019-05-02T03:39:58.340Z,99.99
2019-05-02T03:40:56.438Z,99.99
2019-05-02T03:42:03.017Z,99.99
2019-05-02T03:42:56.390Z,99.99
2019-05-02T03:44:10.873Z,99.99
2019-05-02T03:45:04.028Z,99.99
2019-05-02T03:45:56.038Z,99.99
2019-05-02T03:47:02.214Z,99.99
2019-05-02T03:47:55.875Z,99.99
2019-05-02T03:49:06.019Z,99.99
2019-05-02T03:49:55.711Z,99.99
2019-05-02T03:50:55.718Z,99.99
2019-05-02T03:52:02.021Z,99.99
2019-05-02T03:52:55.461Z,99.99
2019-05-02T03:54:06.249Z,99.99
2019-05-02T03:54:55.321Z,99.99
2019-05-02T03:55:55.262Z,99.99
2019-05-02T03:56:55.247Z,99.99
2019-05-02T03:57:55.069Z,99.99
2019-05-02T03:58:56.379Z,99.99
2019-05-02T03:59:54.953Z,99.99
2019-05-02T04:01:01.092Z,99.99
2019-05-02T04:01:54.739Z,99.99
2019-05-02T04:03:00.311Z,99.99
2019-05-02T04:03:54.579Z,99.99
2019-05-02T04:05:00.352Z,99.99
2019-05-02T04:05:54.487Z,99.99
2019-05-02T04:06:54.954Z,99.99
2019-05-02T04:07:54.244Z,99.99
2019-05-02T04:08:59.937Z,99.99
2019-05-02T04:09:54.202Z,99.99
2019-05-02T04:10:59.633Z,99.99
2019-05-02T04:11:54.006Z,99.99
2019-05-02T04:12:58.465Z,99.99
2019-05-02T04:13:53.759Z,99.99
2019-05-02T04:14:55.476Z,99.99
2019-05-02T04:15:53.599Z,99.99
2019-05-02T04:16:55.164Z,99.99
2019-05-02T04:17:53.533Z,99.99
2019-05-02T04:18:55.834Z,99.99
2019-05-02T04:19:53.270Z,99.99
2019-05-02T04:20:53.250Z,99.99
2019-05-02T04:21:54.967Z,99.99
2019-05-02T04:22:53.019Z,99.99
2019-05-02T04:23:52.978Z,99.99
2019-05-02T04:24:56.285Z,99.99
2019-05-02T04:25:52.781Z,99.99
2019-05-02T04:26:56.004Z,99.99
2019-05-02T04:27:52.686Z,99.99
2019-05-02T04:28:53.810Z,99.99
2019-05-02T04:29:52.458Z,99.99
2019-05-02T04:30:53.993Z,99.99
2019-05-02T04:31:52.288Z,99.99
2019-05-02T04:32:55.801Z,99.99
2019-05-02T04:33:52.150Z,99.99
2019-05-02T04:34:55.279Z,99.99
2019-05-02T04:35:51.971Z,99.99
2019-05-02T04:36:59.377Z,99.99
2019-05-02T04:37:51.802Z,99.99
2019-05-02T04:38:52.668Z,99.99
2019-05-02T04:39:53.722Z,99.99
2019-05-02T04:40:51.562Z,99.99
2019-05-02T04:41:51.552Z,99.99
2019-05-02T04:43:05.487Z,99.99
2019-05-02T04:43:57.302Z,99.99
2019-05-02T04:45:11.827Z,99.99
2019-05-02T04:45:56.183Z,99.99
2019-05-02T04:46:51.204Z,99.99
2019-05-02T04:47:58.463Z,99.99
2019-05-02T04:48:53.007Z,99.99
2019-05-02T04:49:52.028Z,99.99
2019-05-02T04:50:51.694Z,99.99
2019-05-02T04:51:59.970Z,99.99
2019-05-02T04:52:53.847Z,99.99
2019-05-02T04:53:50.617Z,99.99
2019-05-02T04:54:50.420Z,99.99
2019-05-02T04:56:01.914Z,99.99
2019-05-02T04:56:55.239Z,99.99
2019-05-02T04:57:50.959Z,99.99
2019-05-02T04:58:50.111Z,99.99
2019-05-02T04:59:50.740Z,99.99
2019-05-02T05:00:53.549Z,99.99
2019-05-02T05:01:57.244Z,99.99
2019-05-02T05:02:53.149Z,99.99
2019-05-02T05:03:58.239Z,99.99
2019-05-02T05:04:49.681Z,99.99
2019-05-02T05:05:49.624Z,99.99
2019-05-02T05:06:55.908Z,99.99
2019-05-02T05:07:49.650Z,99.99
2019-05-02T05:08:49.856Z,99.99
2019-05-02T05:09:56.986Z,99.99
2019-05-02T05:10:49.134Z,99.99
2019-05-02T05:11:49.199Z,99.99
2019-05-02T05:12:48.963Z,99.99
2019-05-02T05:13:52.347Z,99.99
2019-05-02T05:14:48.800Z,99.99
2019-05-02T05:15:51.846Z,99.99
2019-05-02T05:16:51.678Z,99.99
2019-05-02T05:17:50.075Z,99.99
2019-05-02T05:18:51.861Z,99.99
2019-05-02T05:19:48.851Z,99.99
2019-05-02T05:20:53.089Z,99.99
2019-05-02T05:21:48.237Z,99.99
2019-05-02T05:22:48.147Z,99.99
2019-05-02T05:23:51.744Z,99.99
2019-05-02T05:24:47.985Z,99.99
2019-05-02T05:25:50.551Z,99.99
2019-05-02T05:26:47.826Z,99.99
2019-05-02T05:27:47.964Z,99.99
2019-05-02T05:28:47.745Z,99.99
2019-05-02T05:29:48.567Z,99.99
2019-05-02T05:30:51.863Z,99.99
2019-05-02T05:31:48.251Z,99.99
2019-05-02T05:32:47.890Z,99.99
2019-05-02T05:33:47.928Z,99.99
2019-05-02T05:34:47.793Z,99.99
2019-05-02T05:35:48.761Z,99.99
2019-05-02T05:36:48.168Z,99.99
2019-05-02T05:37:49.016Z,99.99
2019-05-02T05:38:47.850Z,99.99
2019-05-02T05:39:48.707Z,99.99
2019-05-02T05:40:47.907Z,99.99
2019-05-02T05:41:50.539Z,99.99
2019-05-02T05:42:48.085Z,99.99
2019-05-02T05:43:50.039Z,99.99
2019-05-02T05:44:48.339Z,99.99
2019-05-02T05:45:53.568Z,99.99
2019-05-02T05:46:48.909Z,99.99
2019-05-02T05:47:47.877Z,99.99
2019-05-02T05:48:47.640Z,99.99
2019-05-02T05:49:47.757Z,99.99
2019-05-02T05:50:47.669Z,99.99
2019-05-02T05:51:47.475Z,99.99
2019-05-02T05:52:47.268Z,99.99
2019-05-02T05:53:47.713Z,99.99
2019-05-02T05:54:47.074Z,99.99
2019-05-02T05:55:47.372Z,99.99
2019-05-02T05:56:45.398Z,99.99
2019-05-02T05:57:49.735Z,99.99
2019-05-02T05:58:50.493Z,99.99
2019-05-02T05:59:45.332Z,99.99
2019-05-02T06:00:45.939Z,99.99
2019-05-02T06:01:45.146Z,99.99
2019-05-02T06:02:53.842Z,99.99
2019-05-02T06:03:45.177Z,99.99
2019-05-02T06:04:44.873Z,99.99
2019-05-02T06:05:44.679Z,99.99
2019-05-02T06:06:44.779Z,99.99
2019-05-02T06:07:45.035Z,99.99
2019-05-02T06:08:44.586Z,99.99
2019-05-02T06:09:44.355Z,99.99
2019-05-02T06:10:45.252Z,99.99
2019-05-02T06:11:44.199Z,99.99
2019-05-02T06:12:44.321Z,99.99
2019-05-02T06:13:48.707Z,99.99
2019-05-02T06:14:46.336Z,99.99
2019-05-02T06:15:45.926Z,99.99
2019-05-02T06:16:46.646Z,99.99
2019-05-02T06:17:43.714Z,99.99
2019-05-02T06:18:43.766Z,99.99
2019-05-02T06:19:43.577Z,99.99
2019-05-02T06:20:43.635Z,99.99
2019-05-02T06:21:45.156Z,99.99
2019-05-02T06:22:43.314Z,99.99
2019-05-02T06:23:43.285Z,99.99
2019-05-02T06:24:46.133Z,99.99
2019-05-02T06:25:43.126Z,99.99
2019-05-02T06:26:44.656Z,99.99
2019-05-02T06:27:42.922Z,99.99
2019-05-02T06:28:43.274Z,99.99
2019-05-02T06:29:42.879Z,99.99
2019-05-02T06:30:42.675Z,99.99
2019-05-02T06:31:43.094Z,99.99
2019-05-02T06:32:42.716Z,99.99
2019-05-02T06:33:42.438Z,99.99
2019-05-02T06:34:46.492Z,99.99
2019-05-02T06:35:42.412Z,99.99
2019-05-02T06:36:42.208Z,98.41
2019-05-02T06:37:45.246Z,97.75
2019-05-02T06:38:42.224Z,99.99
2019-05-02T06:39:41.959Z,99.99
2019-05-02T06:40:44.653Z,99.99
2019-05-02T06:41:41.937Z,99.99
2019-05-02T06:42:41.724Z,99.99
2019-05-02T06:43:46.541Z,99.99
2019-05-02T06:44:41.752Z,94.37
2019-05-02T06:45:41.487Z,96.27
2019-05-02T06:46:41.407Z,97.61
2019-05-02T06:47:43.520Z,94.74
2019-05-02T06:48:41.251Z,93.70
2019-05-02T06:49:41.165Z,93.51
2019-05-02T06:50:41.106Z,92.84
2019-05-02T06:51:41.007Z,91.74
2019-05-02T06:52:40.931Z,91.27
2019-05-02T06:53:41.307Z,90.59
2019-05-02T06:54:40.773Z,91.55
2019-05-02T06:55:40.702Z,91.93
2019-05-02T06:56:43.075Z,89.93
2019-05-02T06:57:40.715Z,89.17
2019-05-02T06:58:41.873Z,87.21
2019-05-02T06:59:40.527Z,86.25
2019-05-02T07:00:56.574Z,84.82
2019-05-02T07:01:40.216Z,84.06
2019-05-02T07:02:40.242Z,84.16
2019-05-02T07:03:41.377Z,83.58
2019-05-02T07:04:39.985Z,83.77
2019-05-02T07:05:39.980Z,83.67
2019-05-02T07:06:56.072Z,83.01
2019-05-02T07:07:39.763Z,81.58
2019-05-02T07:08:39.798Z,80.33
2019-05-02T07:09:41.395Z,80.57
2019-05-02T07:10:44.737Z,80.38
2019-05-02T07:11:41.013Z,80.47
2019-05-02T07:12:39.370Z,81.33
2019-05-02T07:13:41.974Z,79.90
2019-05-02T07:14:39.303Z,77.94
2019-05-02T07:15:40.559Z,77.70
2019-05-02T07:16:39.170Z,77.84
2019-05-02T07:17:39.029Z,78.22
2019-05-02T07:18:42.143Z,77.84
2019-05-02T07:19:38.811Z,77.94
2019-05-02T07:20:40.494Z,78.64
2019-05-02T07:21:38.656Z,78.26
2019-05-02T07:22:39.202Z,81.70
2019-05-02T07:23:38.543Z,82.84
2019-05-02T07:24:38.416Z,82.46
2019-05-02T07:25:39.136Z,80.93
2019-05-02T07:26:38.359Z,78.93
2019-05-02T07:27:39.275Z,77.92
2019-05-02T07:28:40.239Z,75.24
2019-05-02T07:29:38.079Z,78.68
2019-05-02T07:30:37.956Z,79.73
2019-05-02T07:31:37.873Z,78.97
2019-05-02T07:32:37.795Z,77.63
2019-05-02T07:33:38.756Z,76.33
2019-05-02T07:34:37.641Z,77.28
2019-05-02T07:35:37.599Z,76.14
2019-05-02T07:36:38.392Z,74.32
2019-05-02T07:37:37.408Z,73.88
2019-05-02T07:38:37.334Z,74.22
2019-05-02T07:39:41.043Z,72.73
2019-05-02T07:40:37.172Z,72.44
2019-05-02T07:41:37.346Z,72.34
2019-05-02T07:42:41.532Z,70.81
2019-05-02T07:43:36.947Z,73.30
2019-05-02T07:44:36.944Z,72.73
2019-05-02T07:45:40.261Z,70.91
2019-05-02T07:46:36.713Z,70.05
2019-05-02T07:47:40.299Z,69.86
2019-05-02T07:48:36.561Z,69.95
2019-05-02T07:49:36.484Z,70.24
2019-05-02T07:50:36.411Z,71.20
2019-05-02T07:51:36.387Z,70.91
2019-05-02T07:52:36.253Z,71.77
2019-05-02T07:53:36.292Z,69.86
2019-05-02T07:54:36.100Z,69.67
2019-05-02T07:55:40.664Z,69.76
2019-05-02T07:56:35.975Z,71.04
2019-05-02T07:57:35.872Z,68.94
2019-05-02T07:58:38.483Z,69.03
2019-05-02T07:59:35.715Z,69.80
2019-05-02T08:00:37.171Z,69.64
2019-05-02T08:01:35.626Z,68.11
2019-05-02T08:02:35.485Z,67.44
2019-05-02T08:03:35.437Z,67.38
2019-05-02T08:04:35.445Z,67.09
2019-05-02T08:05:35.259Z,67.28
2019-05-02T08:06:39.825Z,68.14
2019-05-02T08:07:35.201Z,69.87
2019-05-02T08:08:36.466Z,68.14
2019-05-02T08:09:39.183Z,68.24
2019-05-02T08:10:34.886Z,69.10
2019-05-02T08:11:37.055Z,69.20
2019-05-02T08:12:34.723Z,68.72
2019-05-02T08:13:34.666Z,69.96
2019-05-02T08:14:36.344Z,69.58
2019-05-02T08:15:34.497Z,69.39
2019-05-02T08:16:34.425Z,69.29
2019-05-02T08:17:34.350Z,69.01
2019-05-02T08:18:34.319Z,69.90
2019-05-02T08:19:37.444Z,69.04
2019-05-02T08:20:34.235Z,67.02
2019-05-02T08:21:34.043Z,66.26
2019-05-02T08:22:33.969Z,66.67
2019-05-02T08:23:33.941Z,66.10
2019-05-02T08:24:37.841Z,66.19
2019-05-02T08:25:33.751Z,67.47
2019-05-02T08:26:33.760Z,66.13
2019-05-02T08:27:34.772Z,64.79
2019-05-02T08:28:33.517Z,63.35
2019-05-02T08:29:33.446Z,64.50
2019-05-02T08:30:35.273Z,65.27
2019-05-02T08:31:33.293Z,65.36
2019-05-02T08:32:33.291Z,62.71
2019-05-02T08:33:34.751Z,62.42
2019-05-02T08:34:33.111Z,61.27
2019-05-02T08:35:33.105Z,61.55
2019-05-02T08:36:32.918Z,61.27
2019-05-02T08:37:35.175Z,60.11
2019-05-02T08:38:32.818Z,59.28
2019-05-02T08:39:33.988Z,60.05
2019-05-02T08:40:32.622Z,59.95
2019-05-02T08:41:32.632Z,61.30
2019-05-02T08:42:32.702Z,63.22
2019-05-02T08:43:32.393Z,62.45
2019-05-02T08:44:32.348Z,61.87
2019-05-02T08:45:32.998Z,62.45
2019-05-02T08:46:32.168Z,59.28
2019-05-02T08:47:32.165Z,57.65
2019-05-02T08:48:36.508Z,58.32
2019-05-02T08:49:31.953Z,58.54
2019-05-02T08:50:33.368Z,58.83
2019-05-02T08:51:31.883Z,58.06
2019-05-02T08:52:31.790Z,59.41
2019-05-02T08:53:31.653Z,60.66
2019-05-02T08:54:32.766Z,59.89
2019-05-02T08:55:31.602Z,60.94
2019-05-02T08:56:31.433Z,60.97
2019-05-02T08:57:34.544Z,60.69
2019-05-02T08:58:31.317Z,59.24
2019-05-02T08:59:31.206Z,60.04
2019-05-02T09:00:32.069Z,59.75
2019-05-02T09:01:35.484Z,59.66
2019-05-02T09:02:40.793Z,59.47
2019-05-02T09:03:38.992Z,56.00
2019-05-02T09:04:30.840Z,55.04
2019-05-02T09:05:30.860Z,57.92
2019-05-02T09:06:30.693Z,57.45
2019-05-02T09:07:31.710Z,56.48
2019-05-02T09:08:30.668Z,59.17
2019-05-02T09:09:30.475Z,60.33
2019-05-02T09:10:30.400Z,58.31
2019-05-02T09:11:30.329Z,58.70
2019-05-02T09:12:31.984Z,59.08
2019-05-02T09:13:30.302Z,58.05
2019-05-02T09:14:32.052Z,56.41
2019-05-02T09:15:31.975Z,55.93
2019-05-02T09:16:30.935Z,57.95
2019-05-02T09:17:36.102Z,55.52
2019-05-02T09:18:35.025Z,56.60
2019-05-02T09:19:34.086Z,56.70
2019-05-02T09:20:31.528Z,56.12
2019-05-02T09:21:32.192Z,55.83
2019-05-02T09:22:29.639Z,56.12
2019-05-02T09:23:33.235Z,56.12
2019-05-02T09:24:29.554Z,54.10
2019-05-02T09:25:29.459Z,54.00
2019-05-02T09:26:36.175Z,54.00
2019-05-02T09:27:29.166Z,54.10
2019-05-02T09:28:29.090Z,54.90
2019-05-02T09:29:29.064Z,55.38
2019-05-02T09:30:28.953Z,54.32
2019-05-02T09:31:28.875Z,53.45
2019-05-02T09:32:28.799Z,54.22
2019-05-02T09:33:28.894Z,53.84
2019-05-02T09:34:28.798Z,55.38
2019-05-02T09:35:28.587Z,55.38
2019-05-02T09:36:28.520Z,55.87
2019-05-02T09:37:28.439Z,55.57
2019-05-02T09:38:28.367Z,56.35
2019-05-02T09:39:32.695Z,55.19
2019-05-02T09:40:28.430Z,54.32
2019-05-02T09:41:32.491Z,55.87
2019-05-02T09:42:28.238Z,56.85
2019-05-02T09:43:29.203Z,55.89
2019-05-02T09:44:27.934Z,54.35
2019-05-02T09:45:32.642Z,54.44
2019-05-02T09:46:27.960Z,54.64
2019-05-02T09:47:33.209Z,54.66
2019-05-02T09:48:27.654Z,53.03
2019-05-02T09:49:27.576Z,50.62
2019-05-02T09:50:31.408Z,50.21
2019-05-02T09:51:27.436Z,48.76
2019-05-02T09:52:27.360Z,48.86
2019-05-02T09:53:27.395Z,48.18
2019-05-02T09:54:27.218Z,50.01
2019-05-02T09:55:27.145Z,51.94
2019-05-02T09:56:27.073Z,54.64
2019-05-02T09:57:27.115Z,55.22
2019-05-02T09:58:27.021Z,53.48
2019-05-02T09:59:30.249Z,52.42
2019-05-02T10:00:31.284Z,52.69
2019-05-02T10:01:26.837Z,49.79
2019-05-02T10:02:26.642Z,47.49
2019-05-02T10:03:26.645Z,48.44
2019-05-02T10:04:26.548Z,50.83
2019-05-02T10:05:26.438Z,49.58
2019-05-02T10:06:26.463Z,49.68
2019-05-02T10:07:26.369Z,49.77
2019-05-02T10:08:26.213Z,50.15
2019-05-02T10:09:27.302Z,49.74
2019-05-02T10:10:26.181Z,49.74
2019-05-02T10:11:26.278Z,49.68
2019-05-02T10:12:25.989Z,50.63
2019-05-02T10:13:25.898Z,50.93
2019-05-02T10:14:25.790Z,50.76
2019-05-02T10:15:25.788Z,51.62
2019-05-02T10:16:27.366Z,49.41
2019-05-02T10:17:25.568Z,49.79
2019-05-02T10:18:30.205Z,52.01
2019-05-02T10:19:26.164Z,50.66
2019-05-02T10:20:31.852Z,49.70
2019-05-02T10:21:25.350Z,49.70
2019-05-02T10:22:31.044Z,49.32
2019-05-02T10:23:25.142Z,49.99
2019-05-02T10:24:25.152Z,49.79
2019-05-02T10:25:25.055Z,48.35
2019-05-02T10:26:25.042Z,48.47
2019-05-02T10:27:24.965Z,49.12
2019-05-02T10:28:24.869Z,50.11
2019-05-02T10:29:28.437Z,48.35
2019-05-02T10:30:24.681Z,48.06
2019-05-02T10:31:27.616Z,47.49
2019-05-02T10:32:24.491Z,50.25
2019-05-02T10:33:28.085Z,50.35
2019-05-02T10:34:24.401Z,51.60
2019-05-02T10:35:28.082Z,52.85
2019-05-02T10:36:24.204Z,52.85
2019-05-02T10:37:24.134Z,50.35
2019-05-02T10:38:24.065Z,49.38
2019-05-02T10:39:28.446Z,49.87
2019-05-02T10:40:24.008Z,49.38
2019-05-02T10:41:23.855Z,49.87
2019-05-02T10:42:23.852Z,49.68
2019-05-02T10:43:23.700Z,53.53
2019-05-02T10:44:27.117Z,50.47
2019-05-02T10:45:23.557Z,49.41
2019-05-02T10:46:27.718Z,49.70
2019-05-02T10:47:23.413Z,48.83
2019-05-02T10:48:28.211Z,47.87
2019-05-02T10:49:23.376Z,47.10
2019-05-02T10:50:23.196Z,48.64
2019-05-02T10:51:25.946Z,50.76
2019-05-02T10:52:29.595Z,51.92
2019-05-02T10:53:22.982Z,49.70
2019-05-02T10:54:23.181Z,48.64
2019-05-02T10:55:24.269Z,47.10
2019-05-02T10:56:22.767Z,47.49
2019-05-02T10:57:22.816Z,47.19
2019-05-02T10:58:23.944Z,47.00
2019-05-02T10:59:22.551Z,47.49
2019-05-02T11:00:22.532Z,49.02
2019-05-02T11:01:22.545Z,49.60
2019-05-02T11:02:22.339Z,47.60
2019-05-02T11:03:22.552Z,48.38
2019-05-02T11:04:26.431Z,47.22
2019-05-02T11:05:26.303Z,49.24
2019-05-02T11:06:22.402Z,49.73
2019-05-02T11:07:26.163Z,47.60
2019-05-02T11:08:22.498Z,46.45
2019-05-02T11:09:26.156Z,46.25
2019-05-02T11:10:21.857Z,45.87
2019-05-02T11:11:21.958Z,45.97
2019-05-02T11:12:25.600Z,48.74
2019-05-02T11:13:21.802Z,51.43
2019-05-02T11:14:22.540Z,51.46
2019-05-02T11:15:21.952Z,51.07
2019-05-02T11:16:21.692Z,51.07
2019-05-02T11:17:22.685Z,49.73
2019-05-02T11:18:22.203Z,48.59
2019-05-02T11:19:21.877Z,49.84
2019-05-02T11:20:22.470Z,51.87
2019-05-02T11:21:22.759Z,49.65
2019-05-02T11:22:22.716Z,48.76
2019-05-02T11:23:22.138Z,47.12
2019-05-02T11:24:22.492Z,48.47
2019-05-02T11:25:22.461Z,48.08
2019-05-02T11:26:24.738Z,47.60
2019-05-02T11:27:22.133Z,47.77
2019-05-02T11:28:21.992Z,50.37
2019-05-02T11:29:20.407Z,47.77
2019-05-02T11:30:22.283Z,47.67
2019-05-02T11:31:21.852Z,46.81
2019-05-02T11:32:22.079Z,46.42
2019-05-02T11:33:20.122Z,46.42
2019-05-02T11:34:21.594Z,47.77
2019-05-02T11:35:19.977Z,47.39
2019-05-02T11:36:22.127Z,46.31
2019-05-02T11:37:19.840Z,46.31
2019-05-02T11:38:41.240Z,45.83
2019-05-02T11:39:27.267Z,46.88
2019-05-02T11:40:19.620Z,50.83
2019-05-02T11:41:19.642Z,50.54
2019-05-02T11:42:23.256Z,48.43
2019-05-02T11:43:19.406Z,49.89
2019-05-02T11:44:19.333Z,50.85
2019-05-02T11:45:19.361Z,50.66
2019-05-02T11:46:19.195Z,48.64
2019-05-02T11:47:22.758Z,48.54
2019-05-02T11:48:19.876Z,46.91
2019-05-02T11:49:18.976Z,47.97
2019-05-02T11:50:18.902Z,49.79
2019-05-02T11:51:18.890Z,46.91
2019-05-02T11:52:18.759Z,46.71
2019-05-02T11:53:29.338Z,48.44
2019-05-02T11:54:18.619Z,49.73
2019-05-02T11:55:19.093Z,48.66
2019-05-02T11:56:18.479Z,45.87
2019-05-02T11:57:22.737Z,45.00
2019-05-02T11:58:18.347Z,45.48
2019-05-02T11:59:20.777Z,47.22
2019-05-02T12:00:18.185Z,46.15
2019-05-02T12:01:19.300Z,45.77
2019-05-02T12:02:19.037Z,44.52
2019-05-02T12:03:18.053Z,44.71
2019-05-02T12:04:17.907Z,48.66
2019-05-02T12:05:17.967Z,47.31
2019-05-02T12:06:19.792Z,48.57
2019-05-02T12:07:17.730Z,46.25
2019-05-02T12:08:17.617Z,47.51
2019-05-02T12:09:17.642Z,46.25
2019-05-02T12:10:17.476Z,46.95
2019-05-02T12:11:17.895Z,48.11
2019-05-02T12:12:17.331Z,46.37
2019-05-02T12:13:17.359Z,46.37
2019-05-02T12:14:17.189Z,47.51
2019-05-02T12:15:17.214Z,46.73
2019-05-02T12:16:17.047Z,46.93
2019-05-02T12:17:17.125Z,46.14
2019-05-02T12:18:16.900Z,45.46
2019-05-02T12:19:16.932Z,45.84
2019-05-02T12:20:16.762Z,46.14
2019-05-02T12:21:16.859Z,46.81
2019-05-02T12:22:17.030Z,48.54
2019-05-02T12:23:16.682Z,47.87
2019-05-02T12:24:16.479Z,47.51
2019-05-02T12:25:16.523Z,48.57
2019-05-02T12:26:16.334Z,50.49
2019-05-02T12:27:16.375Z,50.40
2019-05-02T12:28:16.189Z,50.88
2019-05-02T12:29:16.138Z,50.32
2019-05-02T12:30:16.050Z,49.37
2019-05-02T12:31:16.671Z,47.34
2019-05-02T12:32:15.906Z,45.60
2019-05-02T12:33:15.906Z,46.18
2019-05-02T12:34:15.767Z,45.31
2019-05-02T12:35:15.815Z,44.64
2019-05-02T12:36:15.618Z,44.54
2019-05-02T12:37:15.625Z,44.18
2019-05-02T12:38:15.474Z,44.54
2019-05-02T12:39:15.533Z,43.77
2019-05-02T12:40:15.340Z,45.89
2019-05-02T12:41:22.288Z,47.17
2019-05-02T12:42:15.425Z,48.71
2019-05-02T12:43:15.260Z,47.55
2019-05-02T12:44:15.054Z,45.92
2019-05-02T12:45:15.068Z,46.56
2019-05-02T12:46:14.919Z,47.82
2019-05-02T12:47:14.980Z,48.30
2019-05-02T12:48:14.765Z,47.14
2019-05-02T12:49:24.542Z,45.39
2019-05-02T12:50:14.631Z,45.84
2019-05-02T12:51:14.702Z,46.23